Time;durP1;ratioP1;P1;durP2;ratioP2;P2;SDS_P1;SDS_P2;PMS_P1;PMS_P2;Temp;Humidity;BMP_temperature;BMP_pressure;BME280_temperature;BME280_humidity;BME280_pressure;Samples;Min_cycle;Max_cycle;Signal;HPM_P1;HPM_P2
2021/10/04 00:00:35;;;;;;;1.48;0.20;;;11.40;99.90;;;;;;6120272;23;20045;-91
2021/10/04 00:03:01;;;;;;;2.83;0.30;;;11.40;99.90;;;;;;6120277;23;20033;-92
2021/10/04 00:05:26;;;;;;;2.85;0.20;;;11.40;99.90;;;;;;6144809;23;20006;-90
2021/10/04 00:07:52;;;;;;;2.05;0.30;;;11.40;99.90;;;;;;6170588;23;20454;-90
2021/10/04 00:10:18;;;;;;;2.20;0.20;;;11.30;99.90;;;;;;6119854;23;20044;-91
2021/10/04 00:12:45;;;;;;;2.75;0.30;;;11.40;99.90;;;;;;6144050;23;20016;-90
2021/10/04 00:15:14;;;;;;;1.73;0.30;;;11.40;99.90;;;;;;6144048;23;20016;-91
2021/10/04 00:17:40;;;;;;;1.40;0.28;;;11.30;99.90;;;;;;6144333;23;20028;-91
2021/10/04 00:20:09;;;;;;;1.75;0.20;;;11.30;99.90;;;;;;6144658;23;20033;-91
2021/10/04 00:22:36;;;;;;;0.98;0.20;;;11.30;99.90;;;;;;6144396;23;20017;-89
2021/10/04 00:25:03;;;;;;;2.03;0.30;;;11.30;99.90;;;;;;6144355;23;20005;-89
2021/10/04 00:27:29;;;;;;;0.63;0.20;;;11.40;99.90;;;;;;6144489;23;20439;-90
2021/10/04 00:29:55;;;;;;;2.08;0.28;;;11.40;99.90;;;;;;6144747;23;20054;-90
2021/10/04 00:32:20;;;;;;;1.83;0.25;;;11.40;99.90;;;;;;6120113;23;20453;-91
2021/10/04 00:34:46;;;;;;;2.45;0.20;;;11.40;99.90;;;;;;6119491;23;20040;-89
2021/10/04 00:37:11;;;;;;;2.65;0.20;;;11.40;99.90;;;;;;6144290;23;20060;-90
2021/10/04 00:39:37;;;;;;;2.10;0.20;;;11.40;99.90;;;;;;6144341;23;20061;-92
2021/10/04 00:42:04;;;;;;;1.40;0.20;;;11.40;99.90;;;;;;6119812;23;20005;-91
2021/10/04 00:44:29;;;;;;;0.93;0.20;;;11.40;99.90;;;;;;6143607;23;20005;-90
2021/10/04 00:47:16;;;;;;;0.90;0.30;;;11.40;99.90;;;;;;6147968;23;20096;-91
2021/10/04 00:49:43;;;;;;;1.40;0.30;;;11.50;99.90;;;;;;6119905;23;20005;-90
2021/10/04 00:52:09;;;;;;;1.83;0.35;;;11.40;99.90;;;;;;6144056;23;20014;-93
2021/10/04 00:54:35;;;;;;;2.65;0.30;;;11.50;99.90;;;;;;6170052;23;20338;-92
2021/10/04 00:57:01;;;;;;;1.52;0.20;;;11.40;99.90;;;;;;6143984;23;20316;-90
2021/10/04 00:59:27;;;;;;;1.33;0.20;;;11.40;99.90;;;;;;6143959;23;20016;-90
2021/10/04 01:01:53;;;;;;;1.77;0.20;;;11.40;99.90;;;;;;6120080;23;20005;-91
2021/10/04 01:04:25;;;;;;;1.45;0.30;;;11.50;99.90;;;;;;6119523;23;20006;-92
2021/10/04 01:06:52;;;;;;;1.05;0.20;;;11.40;99.90;;;;;;6144188;23;20048;-91
2021/10/04 01:09:18;;;;;;;2.22;0.20;;;11.40;99.90;;;;;;6144369;23;20005;-90
2021/10/04 01:11:44;;;;;;;1.35;0.20;;;11.50;99.90;;;;;;6143882;23;20061;-91
2021/10/04 01:14:10;;;;;;;1.15;0.20;;;11.40;99.90;;;;;;6143924;23;20033;-91
2021/10/04 01:16:37;;;;;;;0.60;0.10;;;11.50;99.90;;;;;;6143882;23;20041;-92
2021/10/04 01:19:02;;;;;;;1.65;0.20;;;11.40;99.90;;;;;;6119603;23;20017;-91
2021/10/04 01:21:31;;;;;;;2.70;0.10;;;11.50;99.90;;;;;;6119523;23;20014;-92
2021/10/04 01:23:57;;;;;;;2.03;0.20;;;11.50;99.90;;;;;;6119381;23;20010;-91
2021/10/04 01:26:24;;;;;;;0.88;0.20;;;11.40;99.90;;;;;;6119507;23;20005;-92
2021/10/04 01:28:50;;;;;;;4.40;0.20;;;11.50;99.90;;;;;;6119912;23;20025;-91
2021/10/04 01:31:21;;;;;;;0.93;0.40;;;11.50;99.90;;;;;;6143698;23;20017;-92
2021/10/04 01:33:47;;;;;;;0.98;0.10;;;11.40;99.90;;;;;;6145791;23;20098;-92
2021/10/04 01:36:13;;;;;;;1.42;0.20;;;11.40;99.90;;;;;;6145510;23;20020;-91
2021/10/04 01:38:38;;;;;;;0.73;0.10;;;11.40;99.90;;;;;;6121367;23;20002;-92
2021/10/04 01:41:04;;;;;;;1.15;0.10;;;11.40;99.90;;;;;;6121359;23;20024;-91
2021/10/04 01:43:30;;;;;;;1.15;0.20;;;11.40;99.90;;;;;;6121213;23;20066;-93
2021/10/04 01:45:56;;;;;;;1.52;0.20;;;11.40;99.90;;;;;;6116082;23;20029;-92
2021/10/04 01:48:21;;;;;;;1.83;0.10;;;11.40;99.90;;;;;;6116154;23;20006;-90
2021/10/04 01:50:47;;;;;;;2.17;0.20;;;11.40;99.90;;;;;;6116518;23;20021;-94
2021/10/04 01:53:13;;;;;;;0.70;0.15;;;11.40;99.90;;;;;;6116191;23;20010;-91
2021/10/04 01:55:38;;;;;;;2.88;0.20;;;11.40;99.90;;;;;;6140679;23;20064;-91
2021/10/04 01:58:04;;;;;;;1.35;0.20;;;11.40;99.90;;;;;;6140634;23;20029;-91
2021/10/04 02:00:31;;;;;;;0.60;0.20;;;11.50;99.90;;;;;;6140682;23;20014;-91
2021/10/04 02:02:57;;;;;;;0.95;0.20;;;11.50;99.90;;;;;;6140782;23;20446;-93
2021/10/04 02:05:24;;;;;;;2.15;0.10;;;11.40;99.90;;;;;;6140634;23;20040;-92
2021/10/04 02:07:51;;;;;;;1.45;0.20;;;11.40;99.90;;;;;;6140243;23;20018;-91
2021/10/04 02:10:20;;;;;;;1.13;0.20;;;11.40;99.90;;;;;;6140612;23;20502;-91
2021/10/04 02:12:46;;;;;;;2.28;0.20;;;11.50;99.90;;;;;;6116027;23;20088;-91
2021/10/04 02:15:12;;;;;;;3.05;0.20;;;11.50;99.90;;;;;;6115702;23;20014;-91
2021/10/04 02:17:39;;;;;;;2.72;0.20;;;11.40;99.90;;;;;;6115926;23;20010;-92
2021/10/04 02:20:07;;;;;;;1.05;0.30;;;11.40;99.90;;;;;;6140888;23;20010;-92
2021/10/04 02:22:33;;;;;;;1.33;0.38;;;11.30;99.90;;;;;;6140341;23;20014;-91
2021/10/04 02:24:59;;;;;;;2.08;0.30;;;11.30;99.90;;;;;;6140679;23;20006;-92
2021/10/04 02:27:24;;;;;;;0.80;0.20;;;11.40;99.90;;;;;;6115245;23;20013;-92
2021/10/04 02:29:50;;;;;;;1.42;0.30;;;11.40;99.90;;;;;;6142199;23;20358;-91
2021/10/04 02:32:17;;;;;;;1.10;0.30;;;11.40;99.90;;;;;;6140253;23;20447;-90
2021/10/04 02:34:43;;;;;;;1.33;0.22;;;11.50;99.90;;;;;;6140027;23;20006;-92
2021/10/04 02:37:09;;;;;;;2.03;0.20;;;11.40;99.90;;;;;;6140260;23;20033;-93
2021/10/04 02:39:35;;;;;;;0.93;0.22;;;11.40;99.90;;;;;;6140342;23;20010;-90
2021/10/04 02:42:00;;;;;;;1.67;0.20;;;11.40;99.90;;;;;;6115749;23;20010;-92
2021/10/04 02:44:26;;;;;;;1.58;0.20;;;11.40;99.90;;;;;;6139944;23;20005;-90
2021/10/04 02:46:52;;;;;;;1.38;0.17;;;11.40;99.90;;;;;;6109397;23;20017;-92
2021/10/04 02:49:18;;;;;;;1.20;0.20;;;11.40;99.90;;;;;;6120943;23;20033;-91
2021/10/04 02:51:46;;;;;;;0.55;0.20;;;11.30;99.90;;;;;;6121241;23;20036;-91
2021/10/04 02:54:12;;;;;;;0.90;0.20;;;11.30;99.90;;;;;;6120459;23;20005;-92
2021/10/04 02:56:38;;;;;;;1.15;0.10;;;11.30;99.90;;;;;;6120176;23;20023;-91
2021/10/04 02:59:03;;;;;;;5.78;0.63;;;11.20;99.90;;;;;;6120898;23;20044;-92
2021/10/04 03:01:29;;;;;;;0.93;0.20;;;11.20;99.90;;;;;;6120553;23;20056;-90
2021/10/04 03:03:55;;;;;;;0.93;0.20;;;11.20;99.90;;;;;;6120202;23;20016;-92
2021/10/04 03:06:20;;;;;;;0.50;0.10;;;11.20;99.90;;;;;;6122314;23;20006;-92
2021/10/04 03:08:46;;;;;;;3.50;0.63;;;11.20;99.90;;;;;;6120565;23;20016;-91
2021/10/04 03:11:15;;;;;;;1.52;0.20;;;11.20;99.90;;;;;;6144566;23;20013;-91
2021/10/04 03:13:41;;;;;;;2.40;0.20;;;11.20;99.90;;;;;;6144366;23;20014;-92
2021/10/04 03:16:08;;;;;;;2.42;0.15;;;11.10;99.90;;;;;;6120214;23;20021;-91
2021/10/04 03:18:34;;;;;;;0.82;0.20;;;11.20;99.90;;;;;;6120100;23;20005;-92
2021/10/04 03:20:59;;;;;;;0.70;0.10;;;11.10;99.90;;;;;;6120364;23;20009;-90
2021/10/04 03:23:25;;;;;;;1.13;0.20;;;11.10;99.90;;;;;;6144683;23;20001;-91
2021/10/04 03:25:51;;;;;;;1.52;0.20;;;11.10;99.90;;;;;;6170867;23;20036;-91
2021/10/04 03:28:17;;;;;;;2.00;0.20;;;11.10;99.90;;;;;;6144535;23;20013;-89
2021/10/04 03:30:43;;;;;;;1.35;0.13;;;11.00;99.90;;;;;;6119935;23;20029;-91
2021/10/04 03:33:09;;;;;;;1.63;0.10;;;11.00;99.90;;;;;;6119881;23;20013;-91
2021/10/04 03:35:35;;;;;;;1.77;0.20;;;11.10;99.90;;;;;;6120173;23;20021;-90
2021/10/04 03:38:01;;;;;;;1.55;0.10;;;11.10;99.90;;;;;;6146443;23;20040;-91
2021/10/04 03:40:26;;;;;;;0.60;0.10;;;11.10;99.90;;;;;;6120514;23;20092;-91
2021/10/04 03:42:52;;;;;;;2.58;0.17;;;11.10;99.90;;;;;;6144361;23;20007;-90
2021/10/04 03:45:18;;;;;;;1.67;0.15;;;11.00;99.90;;;;;;6120005;23;20443;-91
2021/10/04 03:47:44;;;;;;;1.50;0.10;;;11.00;99.90;;;;;;6115137;23;20025;-91
2021/10/04 03:50:12;;;;;;;2.17;0.20;;;11.00;99.90;;;;;;6091357;23;20025;-90
2021/10/04 03:52:39;;;;;;;3.20;0.10;;;11.00;99.90;;;;;;6115329;23;20373;-91
2021/10/04 03:55:06;;;;;;;1.02;0.10;;;11.00;99.90;;;;;;6139094;23;20014;-91
2021/10/04 03:57:32;;;;;;;0.75;0.10;;;11.00;99.90;;;;;;6114696;23;20016;-92
2021/10/04 03:59:58;;;;;;;0.77;0.10;;;11.00;99.90;;;;;;6115190;23;20006;-91
2021/10/04 04:02:23;;;;;;;3.05;0.15;;;11.00;99.90;;;;;;6139532;23;20482;-91
2021/10/04 04:04:49;;;;;;;0.50;0.10;;;11.00;99.90;;;;;;6091120;23;20065;-91
2021/10/04 04:07:15;;;;;;;0.50;0.20;;;11.00;99.90;;;;;;6139276;23;20014;-90
2021/10/04 04:09:40;;;;;;;0.52;0.10;;;11.00;99.90;;;;;;6139704;23;20010;-90
2021/10/04 04:12:06;;;;;;;1.40;0.20;;;11.00;99.90;;;;;;6114882;23;20033;-89
2021/10/04 04:14:32;;;;;;;1.23;0.10;;;11.00;99.90;;;;;;6139083;23;20020;-93
2021/10/04 04:16:58;;;;;;;0.65;0.10;;;11.00;99.90;;;;;;6139409;23;20017;-92
2021/10/04 04:19:24;;;;;;;0.40;0.10;;;10.90;99.90;;;;;;6139258;23;19998;-91
2021/10/04 04:21:49;;;;;;;1.23;0.10;;;10.90;99.90;;;;;;6139700;23;20010;-92
2021/10/04 04:24:17;;;;;;;0.63;0.10;;;11.00;99.90;;;;;;6139846;23;20013;-91
2021/10/04 04:26:43;;;;;;;1.60;0.10;;;11.00;99.90;;;;;;6139293;23;20093;-91
2021/10/04 04:29:09;;;;;;;0.55;0.10;;;11.00;99.90;;;;;;6139274;23;20002;-91
2021/10/04 04:31:34;;;;;;;2.25;0.13;;;11.00;99.90;;;;;;6140388;23;20045;-92
2021/10/04 04:34:00;;;;;;;1.27;0.10;;;10.90;99.90;;;;;;6140743;23;20049;-91
2021/10/04 04:36:26;;;;;;;2.33;0.20;;;11.00;99.90;;;;;;6140352;23;20018;-92
2021/10/04 04:38:52;;;;;;;3.28;0.20;;;11.00;99.90;;;;;;6140611;23;20013;-91
2021/10/04 04:41:18;;;;;;;0.63;0.20;;;11.00;99.90;;;;;;6114949;23;20049;-92
2021/10/04 04:43:45;;;;;;;1.63;0.10;;;11.00;99.90;;;;;;6139339;23;20008;-90
2021/10/04 04:46:11;;;;;;;1.17;0.10;;;11.00;99.90;;;;;;6136922;23;20018;-91
2021/10/04 04:48:37;;;;;;;1.60;0.20;;;11.00;99.90;;;;;;6113458;23;20029;-91
2021/10/04 04:51:02;;;;;;;1.95;0.20;;;11.00;99.90;;;;;;6139596;23;20006;-91
2021/10/04 04:53:28;;;;;;;0.68;0.10;;;11.00;99.90;;;;;;6115144;23;20065;-91
2021/10/04 04:55:54;;;;;;;0.45;0.10;;;11.00;99.90;;;;;;6115267;23;20091;-90
2021/10/04 04:58:19;;;;;;;1.10;0.10;;;10.90;99.90;;;;;;6115093;23;20002;-90
2021/10/04 05:00:45;;;;;;;0.98;0.10;;;11.00;99.90;;;;;;6114421;23;20172;-90
2021/10/04 05:03:10;;;;;;;1.55;0.20;;;11.00;99.90;;;;;;6114276;23;20013;-90
2021/10/04 05:05:36;;;;;;;0.90;0.10;;;11.00;99.90;;;;;;6139623;23;20124;-91
2021/10/04 05:08:02;;;;;;;1.45;0.10;;;11.00;99.90;;;;;;6117225;23;20507;-90
2021/10/04 05:10:28;;;;;;;0.73;0.10;;;11.00;99.90;;;;;;6141670;23;20010;-92
2021/10/04 05:12:53;;;;;;;0.93;0.10;;;11.00;99.90;;;;;;6117002;23;20006;-90
2021/10/04 05:15:19;;;;;;;6.00;0.20;;;11.00;99.90;;;;;;6116592;23;20018;-91
2021/10/04 05:17:45;;;;;;;2.80;0.10;;;11.00;99.90;;;;;;6116645;23;20392;-90
2021/10/04 05:20:11;;;;;;;1.23;0.20;;;11.00;99.90;;;;;;6116693;23;20017;-90
2021/10/04 05:22:37;;;;;;;0.85;0.20;;;11.00;99.90;;;;;;6140815;23;20006;-91
2021/10/04 05:25:06;;;;;;;1.38;0.10;;;11.00;99.90;;;;;;6140528;23;20002;-89
2021/10/04 05:27:32;;;;;;;2.67;0.50;;;11.00;99.90;;;;;;6116249;23;20002;-89
2021/10/04 05:29:58;;;;;;;1.60;0.20;;;11.00;99.90;;;;;;6140835;23;20006;-91
2021/10/04 05:32:23;;;;;;;0.90;0.10;;;11.00;99.90;;;;;;6116204;23;20016;-90
2021/10/04 05:34:49;;;;;;;0.90;0.10;;;11.00;99.90;;;;;;6115755;23;20022;-90
2021/10/04 05:37:15;;;;;;;1.23;0.10;;;11.00;99.90;;;;;;6116222;23;20006;-90
2021/10/04 05:39:41;;;;;;;0.50;0.10;;;11.00;99.90;;;;;;6116173;23;20057;-91
2021/10/04 05:42:07;;;;;;;0.70;0.10;;;11.10;99.90;;;;;;6140628;23;20009;-89
2021/10/04 05:44:53;;;;;;;0.50;0.10;;;11.00;99.90;;;;;;6139881;23;20002;-89
2021/10/04 05:47:18;;;;;;;1.27;0.17;;;11.00;99.90;;;;;;6051223;23;20023;-90
2021/10/04 05:49:44;;;;;;;2.95;0.13;;;11.00;99.90;;;;;;6056488;23;20010;-89
2021/10/04 05:52:10;;;;;;;0.60;0.10;;;11.00;99.90;;;;;;6051499;23;20011;-89
2021/10/04 05:54:35;;;;;;;1.23;0.15;;;11.00;99.90;;;;;;6076767;23;22009;-90
2021/10/04 05:57:01;;;;;;;0.65;0.10;;;11.10;99.90;;;;;;6051773;23;20098;-90
2021/10/04 05:59:27;;;;;;;0.70;0.15;;;11.10;99.90;;;;;;6075681;23;20007;-90
2021/10/04 06:01:52;;;;;;;0.57;0.10;;;11.10;99.90;;;;;;6056317;23;20011;-90
2021/10/04 06:04:18;;;;;;;2.50;0.10;;;11.10;99.90;;;;;;6055637;23;20081;-90
2021/10/04 06:06:43;;;;;;;0.95;0.20;;;11.10;99.90;;;;;;6079790;23;20015;-90
2021/10/04 06:09:09;;;;;;;1.20;0.10;;;11.10;99.90;;;;;;6051417;23;20008;-90
2021/10/04 06:11:35;;;;;;;1.25;0.10;;;11.10;99.90;;;;;;6076383;23;20007;-89
2021/10/04 06:14:00;;;;;;;0.45;0.20;;;11.10;99.90;;;;;;6031565;23;20007;-88
2021/10/04 06:16:26;;;;;;;1.80;0.20;;;11.10;99.90;;;;;;6055486;23;20015;-88
2021/10/04 06:18:52;;;;;;;1.15;0.10;;;11.20;99.90;;;;;;6078931;23;20007;-88
2021/10/04 06:21:17;;;;;;;2.20;0.20;;;11.20;99.90;;;;;;6027289;23;20007;-89
2021/10/04 06:23:43;;;;;;;0.43;0.10;;;11.20;99.90;;;;;;6047111;23;20246;-90
2021/10/04 06:26:10;;;;;;;1.67;0.10;;;11.20;99.90;;;;;;6144052;23;20068;-89
2021/10/04 06:28:35;;;;;;;1.65;0.65;;;11.20;99.90;;;;;;6144408;23;20006;-89
2021/10/04 06:31:02;;;;;;;0.80;0.10;;;11.20;99.90;;;;;;6139563;23;20048;-89
2021/10/04 06:33:28;;;;;;;1.30;0.20;;;11.20;99.90;;;;;;6138955;23;20017;-88
2021/10/04 06:35:53;;;;;;;1.17;0.10;;;11.20;99.90;;;;;;6139179;23;20010;-88
2021/10/04 06:38:19;;;;;;;1.38;0.20;;;11.20;99.90;;;;;;6164856;23;20010;-90
2021/10/04 06:40:44;;;;;;;0.95;0.20;;;11.20;99.90;;;;;;6167162;23;20014;-88
2021/10/04 06:43:10;;;;;;;1.30;0.20;;;11.30;99.90;;;;;;6139202;23;20010;-89
2021/10/04 06:45:36;;;;;;;1.75;0.20;;;11.30;99.90;;;;;;6119043;23;20009;-88
2021/10/04 06:48:01;;;;;;;1.70;0.20;;;11.30;99.90;;;;;;6143770;23;20011;-88
2021/10/04 06:50:27;;;;;;;2.42;0.10;;;11.40;99.90;;;;;;6143804;23;20073;-89
2021/10/04 06:52:53;;;;;;;2.65;0.20;;;11.40;99.90;;;;;;6143808;23;20005;-88
2021/10/04 06:55:18;;;;;;;1.52;0.10;;;11.40;99.90;;;;;;6144176;23;20073;-92
2021/10/04 06:57:44;;;;;;;0.82;0.20;;;11.40;99.90;;;;;;6143877;23;20013;-87
2021/10/04 07:00:19;;;;;;;3.05;0.13;;;11.40;99.90;;;;;;6163630;23;20037;-90
2021/10/04 07:02:44;;;;;;;0.70;0.20;;;11.40;99.90;;;;;;6140628;23;20502;-88
2021/10/04 07:05:10;;;;;;;1.33;0.20;;;11.50;99.90;;;;;;6139256;23;20065;-90
2021/10/04 07:07:36;;;;;;;1.90;0.20;;;11.50;99.90;;;;;;6140507;23;20061;-91
2021/10/04 07:10:03;;;;;;;2.25;0.10;;;11.50;99.90;;;;;;6139067;23;20005;-90
2021/10/04 07:12:29;;;;;;;1.67;0.20;;;11.60;99.90;;;;;;6138581;23;20013;-90
2021/10/04 07:14:55;;;;;;;2.22;0.10;;;11.60;99.90;;;;;;6138800;23;20010;-90
2021/10/04 07:17:21;;;;;;;1.40;0.20;;;11.60;99.90;;;;;;6138373;23;20034;-89
2021/10/04 07:19:47;;;;;;;0.45;0.10;;;11.70;99.90;;;;;;6167656;23;20013;-89
2021/10/04 07:22:13;;;;;;;4.05;0.20;;;11.60;99.90;;;;;;6138591;23;20014;-91
2021/10/04 07:24:38;;;;;;;1.75;0.10;;;11.70;99.90;;;;;;6141129;23;20006;-88
2021/10/04 07:27:04;;;;;;;1.75;0.28;;;11.70;99.90;;;;;;6138714;23;19998;-89
2021/10/04 07:29:30;;;;;;;1.75;0.20;;;11.80;99.90;;;;;;6143561;23;20029;-90
2021/10/04 07:31:56;;;;;;;0.60;0.17;;;11.80;99.90;;;;;;6143298;23;20346;-90
2021/10/04 07:34:22;;;;;;;3.42;0.30;;;11.70;99.90;;;;;;6143485;23;20020;-89
2021/10/04 07:36:48;;;;;;;0.75;0.20;;;11.80;99.90;;;;;;6143432;23;20013;-88
2021/10/04 07:39:15;;;;;;;2.47;0.20;;;11.80;99.90;;;;;;6138586;23;20009;-91
2021/10/04 07:41:43;;;;;;;1.80;0.20;;;11.80;99.90;;;;;;6166182;23;20006;-89
2021/10/04 07:44:09;;;;;;;2.00;0.17;;;11.90;99.90;;;;;;6138862;23;20022;-90
2021/10/04 07:46:35;;;;;;;1.48;0.20;;;11.90;99.90;;;;;;6135901;23;20045;-89
2021/10/04 07:49:01;;;;;;;1.58;0.20;;;12.00;99.90;;;;;;6138684;23;20006;-90
2021/10/04 07:51:26;;;;;;;0.90;0.15;;;12.00;99.90;;;;;;6163217;23;20033;-89
2021/10/04 07:53:52;;;;;;;3.72;0.20;;;12.00;99.90;;;;;;6167882;23;20001;-88
2021/10/04 07:56:19;;;;;;;1.45;0.20;;;12.10;99.90;;;;;;6138604;23;20017;-88
2021/10/04 07:58:44;;;;;;;2.70;0.20;;;12.10;99.90;;;;;;6140496;23;20331;-89
2021/10/04 08:01:12;;;;;;;1.20;0.20;;;12.20;99.90;;;;;;6138156;23;20010;-89
2021/10/04 08:03:38;;;;;;;0.77;0.20;;;12.20;99.90;;;;;;6140175;23;20017;-89
2021/10/04 08:06:03;;;;;;;1.45;0.20;;;12.20;99.90;;;;;;6088023;23;20057;-90
2021/10/04 08:08:29;;;;;;;1.63;0.40;;;12.20;99.90;;;;;;6162211;23;20339;-91
2021/10/04 08:10:55;;;;;;;1.83;0.20;;;12.20;99.90;;;;;;6137650;23;20006;-91
2021/10/04 08:13:20;;;;;;;2.05;0.10;;;12.20;99.90;;;;;;6137113;23;20010;-89
2021/10/04 08:15:46;;;;;;;3.05;0.20;;;12.20;99.90;;;;;;6164185;23;20033;-89
2021/10/04 08:18:12;;;;;;;1.20;0.20;;;12.20;99.90;;;;;;6137291;23;20399;-88
2021/10/04 08:20:37;;;;;;;0.60;0.15;;;12.10;99.90;;;;;;6164312;23;20076;-89
2021/10/04 08:23:03;;;;;;;1.10;0.20;;;12.10;99.90;;;;;;6161588;23;20006;-87
2021/10/04 08:25:29;;;;;;;2.42;0.10;;;12.00;99.90;;;;;;6121388;23;20009;-88
2021/10/04 08:27:55;;;;;;;1.25;0.10;;;11.90;99.90;;;;;;6138063;23;20013;-89
2021/10/04 08:30:21;;;;;;;0.95;0.20;;;12.00;99.90;;;;;;6138224;23;20010;-87
2021/10/04 08:32:47;;;;;;;1.60;0.20;;;12.00;99.90;;;;;;6166188;23;20064;-88
2021/10/04 08:35:13;;;;;;;2.60;0.30;;;12.00;99.90;;;;;;6138270;23;20010;-87
2021/10/04 08:37:39;;;;;;;1.63;0.20;;;12.00;99.90;;;;;;6140356;23;20053;-88
2021/10/04 08:40:08;;;;;;;0.77;0.20;;;12.20;99.90;;;;;;6162417;23;20006;-88
2021/10/04 08:42:34;;;;;;;0.70;0.13;;;12.30;99.90;;;;;;6127268;23;20073;-88
2021/10/04 08:45:00;;;;;;;1.48;0.20;;;12.70;99.90;;;;;;6140321;23;20014;-88
2021/10/04 08:47:27;;;;;;;1.92;0.22;;;12.90;99.90;;;;;;6139354;23;20045;-86
2021/10/04 08:49:53;;;;;;;1.83;0.20;;;13.20;99.90;;;;;;6128028;23;20338;-88
2021/10/04 08:52:20;;;;;;;1.10;0.30;;;13.40;99.90;;;;;;6133670;23;20012;-90
2021/10/04 08:54:46;;;;;;;1.08;0.20;;;13.60;99.90;;;;;;6142274;23;20041;-88
2021/10/04 08:57:12;;;;;;;1.08;0.20;;;13.70;99.90;;;;;;6171445;23;20016;-87
2021/10/04 08:59:38;;;;;;;2.75;0.20;;;14.00;99.90;;;;;;6142302;23;20002;-91
2021/10/04 09:02:28;;;;;;;3.00;0.20;;;14.00;99.90;;;;;;6139980;23;20009;-88
2021/10/04 09:05:10;;;;;;;1.17;0.20;;;14.20;99.90;;;;;;6128369;23;20057;-88
2021/10/04 09:07:42;;;;;;;0.77;0.20;;;14.20;99.90;;;;;;6139826;23;20427;-88
2021/10/04 09:10:11;;;;;;;2.00;0.20;;;14.10;99.90;;;;;;6131037;23;20014;-88
2021/10/04 09:12:45;;;;;;;2.80;0.20;;;14.30;99.90;;;;;;6141362;23;20431;-89
2021/10/04 09:15:27;;;;;;;3.72;0.30;;;14.30;99.90;;;;;;6164288;23;20037;-88
2021/10/04 09:17:53;;;;;;;1.02;0.20;;;14.50;99.90;;;;;;6127839;23;20079;-90
2021/10/04 09:20:19;;;;;;;1.02;0.20;;;14.60;99.90;;;;;;6139989;23;20013;-90
2021/10/04 09:22:45;;;;;;;2.28;0.25;;;14.70;99.90;;;;;;6093730;23;20006;-92
2021/10/04 09:25:11;;;;;;;3.70;0.20;;;14.70;99.90;;;;;;6164130;23;20013;-88
2021/10/04 09:27:39;;;;;;;2.85;0.20;;;14.70;99.90;;;;;;6116661;23;20009;-89
2021/10/04 09:30:19;;;;;;;0.75;0.20;;;14.60;99.90;;;;;;6138632;23;20006;-90
2021/10/04 09:32:47;;;;;;;2.17;0.20;;;14.60;99.90;;;;;;6142804;23;20044;-92
2021/10/04 09:35:27;;;;;;;3.80;0.22;;;14.70;99.90;;;;;;6139620;23;20067;-89
2021/10/04 09:38:14;;;;;;;2.67;0.20;;;14.80;99.90;;;;;;6139726;23;20010;-88
2021/10/04 09:40:45;;;;;;;1.13;0.40;;;14.90;99.90;;;;;;6141965;23;20006;-89
2021/10/04 09:43:27;;;;;;;1.00;0.20;;;15.10;99.90;;;;;;6139544;23;20009;-87
2021/10/04 09:46:00;;;;;;;2.63;0.25;;;15.40;99.90;;;;;;6151860;23;20014;-88
2021/10/04 09:48:26;;;;;;;0.93;0.10;;;15.50;99.90;;;;;;6134160;23;20029;-87
2021/10/04 09:50:52;;;;;;;1.40;0.20;;;15.50;99.90;;;;;;6152198;23;20140;-90
2021/10/04 09:53:18;;;;;;;2.22;0.20;;;15.50;99.90;;;;;;6131972;23;20006;-89
2021/10/04 09:55:45;;;;;;;3.42;0.30;;;15.50;99.90;;;;;;6118140;23;20447;-86
2021/10/04 09:58:21;;;;;;;1.13;0.10;;;15.60;99.90;;;;;;6139730;23;20080;-89
2021/10/04 10:00:52;;;;;;;1.20;0.20;;;15.90;99.90;;;;;;6142623;23;20013;-87
2021/10/04 10:03:21;;;;;;;2.03;0.20;;;15.90;99.90;;;;;;6139325;23;20025;-88
2021/10/04 10:05:52;;;;;;;2.85;0.30;;;15.80;99.90;;;;;;6143612;23;20006;-89
2021/10/04 10:08:21;;;;;;;2.25;0.20;;;15.90;99.90;;;;;;6139670;23;20076;-89
2021/10/04 10:10:47;;;;;;;2.47;0.10;;;16.00;99.90;;;;;;6142991;23;20036;-92
2021/10/04 10:13:15;;;;;;;1.58;0.20;;;16.10;99.90;;;;;;6139328;23;20005;-90
2021/10/04 10:15:45;;;;;;;4.53;0.20;;;16.20;99.90;;;;;;6166255;23;20399;-89
2021/10/04 10:18:14;;;;;;;;;;;16.30;99.90;;;;;;6139898;23;20016;-90
2021/10/04 10:20:41;;;;;;;1.42;0.13;;;16.30;99.90;;;;;;6142393;23;19931;-91
2021/10/04 10:23:08;;;;;;;6.60;0.50;;;16.40;99.90;;;;;;6139394;23;20061;-87
2021/10/04 10:25:38;;;;;;;1.58;0.10;;;16.30;99.90;;;;;;6140427;23;20320;-85
2021/10/04 10:28:25;;;;;;;2.38;0.20;;;16.50;99.90;;;;;;6139127;23;20037;-88
2021/10/04 10:30:52;;;;;;;1.67;0.15;;;16.40;99.90;;;;;;6167844;23;20009;-87
2021/10/04 10:33:43;;;;;;;3.00;0.10;;;16.50;99.90;;;;;;6139115;23;20012;-91
2021/10/04 10:36:09;;;;;;;;;;;16.60;99.90;;;;;;6151056;23;20022;-89
2021/10/04 10:38:59;;;;;;;1.98;0.10;;;16.60;99.90;;;;;;6148164;23;19911;-89
2021/10/04 10:41:25;;;;;;;1.23;0.10;;;16.90;99.90;;;;;;6138907;23;20010;-88
2021/10/04 10:44:01;;;;;;;4.00;0.20;;;16.90;99.90;;;;;;6119106;23;20454;-89
2021/10/04 10:46:49;;;;;;;1.98;0.10;;;16.80;99.90;;;;;;6100524;23;20014;-87
2021/10/04 10:49:53;;;;;;;2.38;0.10;;;16.90;99.90;;;;;;6107050;23;20009;-89
2021/10/04 10:52:19;;;;;;;3.70;0.20;;;17.20;99.90;;;;;;6114620;23;20069;-88
2021/10/04 10:54:45;;;;;;;4.28;0.20;;;17.10;99.90;;;;;;6114417;23;20014;-89
2021/10/04 10:57:11;;;;;;;1.55;0.10;;;17.10;99.90;;;;;;6109861;23;20049;-88
2021/10/04 10:59:36;;;;;;;2.88;0.10;;;17.20;99.90;;;;;;6111380;23;20003;-87
2021/10/04 11:02:02;;;;;;;2.75;0.10;;;17.40;99.90;;;;;;6114610;23;20010;-87
2021/10/04 11:04:41;;;;;;;2.75;0.20;;;17.50;99.90;;;;;;6138784;23;20013;-88
2021/10/04 11:07:07;;;;;;;1.92;0.20;;;16.90;99.90;;;;;;6114861;23;20029;-88
2021/10/04 11:10:05;;;;;;;1.30;0.10;;;17.00;99.90;;;;;;6135739;23;20002;-89
2021/10/04 11:13:11;;;;;;;4.13;0.80;;;17.20;99.90;;;;;;6140328;23;20080;-88
2021/10/04 11:15:40;;;;;;;1.27;0.13;;;17.10;99.90;;;;;;6089633;23;20014;-90
2021/10/04 11:18:07;;;;;;;2.17;0.10;;;17.40;99.90;;;;;;6140373;23;20006;-91
2021/10/04 11:20:33;;;;;;;1.98;0.10;;;17.50;99.90;;;;;;6139210;23;20010;-91
2021/10/04 11:23:08;;;;;;;1.88;0.10;;;17.60;99.90;;;;;;6138989;23;20087;-88
2021/10/04 11:25:42;;;;;;;4.03;0.10;;;17.20;99.90;;;;;;6139211;23;20116;-92
2021/10/04 11:28:08;;;;;;;2.00;0.10;;;17.20;99.90;;;;;;6138865;23;20006;-91
2021/10/04 11:30:57;;;;;;;1.77;0.13;;;17.30;99.90;;;;;;6139218;23;20014;-91
2021/10/04 11:33:24;;;;;;;2.72;0.10;;;17.10;99.90;;;;;;6138904;23;20010;-89
2021/10/04 11:36:01;;;;;;;2.50;0.10;;;17.70;99.90;;;;;;6138941;23;20031;-90
2021/10/04 11:38:33;;;;;;;0.43;0.03;;;17.80;99.90;;;;;;6114195;23;20020;-89
2021/10/04 11:40:59;;;;;;;1.42;0.10;;;17.40;99.90;;;;;;6138504;23;20030;-88
2021/10/04 11:43:27;;;;;;;1.00;0.20;;;17.80;99.90;;;;;;6138311;23;20057;-89
2021/10/04 11:45:54;;;;;;;0.88;0.03;;;17.80;99.90;;;;;;6120563;23;20017;-90
2021/10/04 11:48:30;;;;;;;2.17;0.10;;;17.30;99.90;;;;;;6143515;23;20257;-88
2021/10/04 11:50:57;;;;;;;3.53;0.10;;;16.90;99.90;;;;;;6163320;23;20010;-88
2021/10/04 11:53:23;;;;;;;1.40;0.10;;;17.40;99.90;;;;;;6108359;23;20006;-88
2021/10/04 11:56:10;;;;;;;0.73;0.10;;;17.50;99.90;;;;;;6143663;23;20069;-88
2021/10/04 11:58:50;;;;;;;1.15;0.17;;;17.80;99.90;;;;;;6143928;23;20013;-87
2021/10/04 12:01:32;;;;;;;1.75;0.10;;;17.90;99.90;;;;;;6139071;23;20036;-89
2021/10/04 12:04:09;;;;;;;3.53;0.50;;;17.90;99.90;;;;;;6138331;23;20010;-88
2021/10/04 12:06:38;;;;;;;2.60;0.20;;;18.00;99.90;;;;;;6139875;23;20080;-89
2021/10/04 12:09:05;;;;;;;3.80;0.10;;;17.80;99.90;;;;;;6138603;23;20006;-88
2021/10/04 12:11:32;;;;;;;2.42;0.10;;;18.00;99.90;;;;;;6139057;23;20010;-86
2021/10/04 12:13:59;;;;;;;2.35;0.10;;;18.30;99.90;;;;;;6162951;23;20017;-85
2021/10/04 12:16:29;;;;;;;1.67;0.08;;;18.30;99.90;;;;;;6132165;23;20442;-88
2021/10/04 12:19:01;;;;;;;2.47;0.10;;;18.20;99.90;;;;;;6143278;23;20060;-89
2021/10/04 12:21:37;;;;;;;1.40;0.10;;;18.50;99.90;;;;;;6143116;23;20017;-87
2021/10/04 12:24:20;;;;;;;3.25;0.43;;;18.50;99.90;;;;;;6118679;23;20084;-89
2021/10/04 12:26:47;;;;;;;1.17;0.08;;;18.10;99.90;;;;;;6138015;23;20006;-87
2021/10/04 12:29:25;;;;;;;0.95;0.10;;;18.00;99.90;;;;;;6159622;23;20020;-89
2021/10/04 12:31:51;;;;;;;2.13;0.10;;;18.30;99.90;;;;;;6143246;23;20010;-88
2021/10/04 12:34:25;;;;;;;2.17;0.20;;;18.50;99.90;;;;;;6138418;23;20016;-87
2021/10/04 12:36:54;;;;;;;1.55;0.10;;;18.50;99.90;;;;;;6167307;23;20400;-88
2021/10/04 12:39:20;;;;;;;1.20;0.00;;;17.90;99.90;;;;;;6143134;23;20002;-89
2021/10/04 12:41:48;;;;;;;1.85;0.10;;;17.50;99.90;;;;;;6118598;23;20087;-87
2021/10/04 12:44:17;;;;;;;1.92;0.45;;;17.60;99.90;;;;;;6162679;23;20016;-86
2021/10/04 12:47:06;;;;;;;1.85;0.10;;;17.80;99.90;;;;;;6135880;23;20018;-87
2021/10/04 12:49:32;;;;;;;2.22;0.10;;;18.30;99.90;;;;;;6162846;23;20033;-87
2021/10/04 12:52:03;;;;;;;1.17;0.10;;;18.50;99.90;;;;;;6137932;23;20037;-88